Aktualne dane pomiarowe

Uwaga, wersja testowa! Automatyczne pobieranie danych za pomocą narzędzi lub skryptów to umożliwiających jest zabronione.

Dane meteo z obszaru Polski uzyskane na podstawie depesz SYNOP pobieranych co godzinę z NWS. Najedź myszką na symbol przedstawiony w tabeli, aby uzyskać informacje co do jego znaczenia. Prosimy pamiętać, że to testowa wersja strony, która jeszcze nie jest ukończona. Stworzono również jest krótki FAQ dotyczący korzystania z tej podstrony Anomalie temperatury w chwili obecnej odniesione są do okresu referencyjnego 1951-2016. Okres ten będzie później zmieniony na 1981-2010. Kliknij ikonę aby pobrać plik CSV. Kliknij ikonę aby wygenerować mapę synoptyczną dla danego terminu.

Wybierz Datę:    

        

Białystok (12295)

Dane terminowe dla wybranej stacji. Kliknij datę, aby otrzymać dane z tego terminu dla wszystkich stacji.

TemperaturaZachmurzenieWiatrCiśnienieOpadyPogoda
 Data t td wb tx tn tg rh  Nt Nl Cl Cm Ch ws wd g1 g2 wx mslp ppp ch 24h 12h t ww ww w1 w2  
2019-08-13 23:00:00 13.8 13.6 13.6--- 998.0wx-wx0---01014.3 996.1 0.1---wx---
2019-08-13 22:00:00 14.2 14.2 14.2--- 1008.0wx-wx1wx--11014.7 996.5 0.3---wx---
2019-08-13 21:00:00 14.2 13.9 14.0--- 9810.0wx-1wx---1014.4 996.2 0.0---wx---
2019-08-13 20:00:00 14.9 14.6 14.7--- 9810.0wx-wx0---01014.1 996.0 -0.3---wx---
2019-08-13 19:00:00 16.1 15.1 15.4--- 9415.0wx-wxwx1wx--11014.2 996.2 0.6---wx---
2019-08-13 18:00:00 18.0 15.8 16.4 23.6 17.0- 8721.0wx-wxwx1wx--11014.1 996.2 0.6- 0.112------
2019-08-13 17:00:00 20.8 16.6 17.9--- 7728.0wxwxwxwx1wx--11014.1 996.3 0.9---------
2019-08-13 16:00:00 22.4 15.3 17.7--- 6430.0wxwxwxwx2wx--21013.2 995.6 0.0---------
2019-08-13 15:00:00 22.5 14.6 17.4--- 6135.0wxwxwxwx3wx--31013.2 995.6 -0.1---------
2019-08-13 14:00:00 23.3 14.6 17.7--- 5828.0wxwxwxwx3wx--31013.0 995.4 -0.2---------
2019-08-13 13:00:00 22.9 13.7 17.1--- 5630.0wxwxwxwx3wx--31013.2 995.6 0.2---------
2019-08-13 12:00:00 22.3 14.9 17.5--- 6328.0wxwxwxwx3wx--31013.4 995.7 1.1- 0.16wx-w1--
2019-08-13 11:00:00 21.3 15.8 17.6--- 7135.0wxwxwxwx3wx--31013.3 995.6 1.5---------
2019-08-13 10:00:00 20.2 16.8 17.8--- 8130.0wxwxwx3wx--31013.2 995.4 1.6---------
2019-08-13 09:00:00 19.1 16.9 17.5--- 8722.0wxwxwx3wx--31012.4 994.6 1.6---wx-w1--
2019-08-13 08:00:00 18.6 17.3 17.7--- 9217.0wxwxwx2wx--21012.0 994.1 1.0---------
2019-08-13 07:00:00 17.2 16.6 16.7--- 969.0wxwxwx2wx--21011.7 993.8 0.8---wx-w1--
2019-08-13 06:00:00 17.5 17.2 17.3 22.8 17.3 18 988.0wxwxwxwx1wx---1010.9 993.0 0.8 3.4 3.424wx-w1- 9.8
2019-08-13 05:00:00 17.4 17.1 17.2--- 988.0wxwxwxwx2wx--21011.0 993.1 1.0---wx-w1w2--
2019-08-13 04:00:00 18.7 18.4 18.5--- 983.3wxwxwxwx1wx--11010.8 993.0 0.4---wx-w1--
2019-08-13 03:00:00 19.1 18.8 18.9--- 988.0wxwxwxwx2wx--21010.0 992.2 -0.5---wx---
2019-08-13 02:00:00 19.2 19.2 19.2--- 1003.4wxwxwxwx1wx--11009.9 992.1 -2.0---wx---
2019-08-13 01:00:00 19.2 19.2 19.2--- 1004.3wxwxwx1wx---1010.4 992.6 -0.5---wx---
2019-08-13 00:00:00 19.3 19.3 19.3--- 1004.2wxwxwx1wx--11010.5 992.7 -1.0- 0.06wx-w1--
2019-08-12 23:00:00 19.4 19.1 19.2--- 981.9wxwxwx3wx--31011.9 994.1 0.3---wx-w1--
2019-08-12 22:00:00 19.3 18.8 18.9--- 9710.0wxwxwx1wx--11010.9 993.1 -1.2---wx---
2019-08-12 21:00:00 18.9 18.6 18.7--- 9810.0wxwxwx1wx--11011.5 993.7 -0.9---wx-w1--
2019-08-12 20:00:00 19.6 19.1 19.2--- 9710.0wx-wx2wx--21011.6 993.8 -0.1---wx---
2019-08-12 19:00:00 20.1 19.3 19.5--- 9510.0wxwxwxwx1wx--11012.1 994.3 0.1---wx-w1--
2019-08-12 18:00:00 22.8 19.0 20.1 28.6 21.3- 7918.0wxwxwxwx2wx--21012.2 994.6 -0.2- 0.312wx---
2019-08-12 17:00:00 23.5 20.0 21.0--- 8135.0wxwxwxwx1wx---1011.5 993.9 -1.4---------
2019-08-12 16:00:00 25.1 20.6 21.9--- 7640.0wxwxwxwx1wx--11011.7 994.2 -1.8---------
2019-08-12 15:00:00 27.1 17.3 20.6--- 5520.0wxwxwxwx2wx--21012.2 994.8 -1.8---------
2019-08-12 14:00:00 27.5 16.5 20.3--- 5125.0wxwxwxwx3wx--31012.6 995.3 -1.3---------
2019-08-12 13:00:00 28.2 15.8 20.2--- 4729.0wxwxwxwx2wx--21013.3 996.0 -0.8---------
2019-08-12 12:00:00 27.5 15.5 19.8--- 4829.0wxwxwxwxwx2wx--21014.0 996.6 -0.4- 0.06------
2019-08-12 11:00:00 26.2 14.6 18.9--- 4940.0wx-wxwx2wx--21014.0 996.6 -1.0---------
2019-08-12 10:00:00 27.0 15.1 19.4--- 4835.0wx-wxwx2wx---1014.2 996.8 -0.7---------
2019-08-12 09:00:00 26.4 15.4 19.3--- 5135.0wxwxwxwxwx3wx--31014.4 997.0 -1.1---------
2019-08-12 08:00:00 25.1 18.8 20.8--- 6830.0wx-wxwx2wx--21015.1 997.6 -0.8----22----
2019-08-12 07:00:00 23.4 18.1 19.7--- 7225.0wx-wxwx1wx--11015.1 997.5 -1.0----22----
2019-08-12 06:00:00 21.3 16.7 18.1 21.4 13.3 11 7535.0wx-wxwx2wx--21015.9 998.1 -0.4- 0.012-22--- 11.5
2019-08-12 05:00:00 18.7 16.1 16.9--- 8535.0wx-wx2wx---1016.3 998.4 -0.4---------
2019-08-12 04:00:00 13.9 13.9 13.9--- 10010.0wx-wxwx1wx--11016.7 998.5 -0.4---------
2019-08-12 03:00:00 13.5 13.2 13.3--- 9810.0wx-wxwx0---01016.8 998.5 -0.3---wx---
2019-08-12 02:00:00 14.2 14.0 14.0--- 9910.0wx-wx1wx--11017.0 998.8 -0.2---------
2019-08-12 01:00:00 14.1 13.8 13.9--- 9810.0wx-wx1wx--11017.1 998.9 0.0---------
2019-08-12 00:00:00 14.3 14.0 14.1--- 9810.0wx-1wx---1017.0 998.8 0.0---------
1.6 ms

 

Print Friendly, PDF & Email